Stations météo

réclame
Mon MeteoGroup
Monte Scuro, Italie (16344): Température de l'air & dewpoint: 14.08.2018 01:00:00 - 20.08.2018 01:00:00 (CEST)Monte Scuro, Italie (16344): Vitesse du vent: 14.08.2018 01:00:00 - 20.08.2018 01:00:00 (CEST)Monte Scuro, Italie (16344): Direction du vent: 14.08.2018 01:00:00 - 20.08.2018 01:00:00 (CEST)Monte Scuro, Italie (16344): reduced air pressure: 14.08.2018 01:00:00 - 20.08.2018 01:00:00 (CEST)Monte Scuro, Italie (16344): visibility: 14.08.2018 01:00:00 - 20.08.2018 01:00:00 (CEST)Monte Scuro, Italie (16344): Ensoleillement: 14.08.2018 01:00:00 - 20.08.2018 01:00:00 (CEST)
Date & Time tt [°C] td [°C] ff [km/h] ff [knt] dd ppp [hPa] vv [km] sd [min]
20.08.2018 01:00:00 14,0 13,2 18 10 E - 10 -
20.08.2018 00:00:00 13,8 13,2 24 13 E - 10 -
19.08.2018 23:00:00 14,0 13,4 24 13 E - 10 -
19.08.2018 22:00:00 14,0 12,5 26 14 E - 10 -
19.08.2018 21:00:00 14,0 12,5 28 15 E - 10 -
19.08.2018 20:00:00 14,2 11,7 28 15 NNE - 20 0
19.08.2018 19:00:00 15,0 11,6 18 10 ENE - 20 60
19.08.2018 18:00:00 15,0 10,6 15 8 E - 20 12
19.08.2018 17:00:00 14,0 11,4 13 7 E - 20 0
19.08.2018 16:00:00 12,0 11,4 11 6 W - 15 0
19.08.2018 15:00:00 15,8 15,2 15 8 W - 15 0
19.08.2018 14:00:00 17,0 14,3 13 7 W - 20 24
19.08.2018 13:00:00 17,8 13,3 11 6 W - 20 60
19.08.2018 12:00:00 18,0 14,1 15 8 W - 25 60
19.08.2018 11:00:00 17,8 13,9 9 5 SSE - 25 60
19.08.2018 10:00:00 17,2 10,9 11 6 E - 25 60
19.08.2018 09:00:00 16,2 9,9 29 16 E - 20 60
19.08.2018 08:00:00 15,2 6,6 41 22 E - 20 48
19.08.2018 07:00:00 13,6 9,5 24 13 ESE - 20 -
19.08.2018 06:00:00 13,0 12,1 24 13 E - 10 -
19.08.2018 05:00:00 14,0 10,6 11 6 SSW - 10 -
19.08.2018 04:00:00 14,0 12,1 11 6 E - 10 -
19.08.2018 03:00:00 13,8 12,5 15 8 E - 10 -
19.08.2018 02:00:00 13,6 13,0 11 6 SW - 10 -
19.08.2018 01:00:00 - - - - - - - -
19.08.2018 00:00:00 - - - - - - - -
18.08.2018 23:00:00 0,0 0,0 15 8 E 1000,0 10 -
18.08.2018 22:00:00 13,8 12,5 24 13 E - 10 -
18.08.2018 21:00:00 14,0 12,1 11 6 SW - 10 -
18.08.2018 20:00:00 15,0 13,5 11 6 SW - 10 6
18.08.2018 19:00:00 16,0 14,5 15 8 SSW - 10 30
18.08.2018 18:00:00 16,2 13,6 15 8 E - 10 42
18.08.2018 17:00:00 15,0 13,2 15 8 E - 5 0
18.08.2018 16:00:00 14,4 13,2 24 13 E - 5 0
18.08.2018 15:00:00 15,8 14,3 11 6 SSW - 7 24
18.08.2018 14:00:00 16,0 15,4 15 8 SW - 1,2 0
18.08.2018 13:00:00 16,2 15,6 11 6 SSW - 2,5 0
18.08.2018 12:00:00 16,4 14,5 11 6 SW - 5 0
18.08.2018 11:00:00 17,6 16,0 11 6 SSW - 5 12
18.08.2018 10:00:00 15,4 11,6 15 8 NE - 15 60
18.08.2018 09:00:00 14,6 12,1 21 11 NE - 10 60
18.08.2018 08:00:00 13,6 10,6 22 12 NE - 10 60
18.08.2018 07:00:00 14,0 12,7 16 9 ENE - 10 -
18.08.2018 06:00:00 13,4 11,8 18 10 NE - 10 -
18.08.2018 05:00:00 13,2 11,4 18 10 NE - 10 -
18.08.2018 04:00:00 13,2 12,4 21 11 NE - 10 -
18.08.2018 03:00:00 13,2 12,4 0 0 N - 10 -
18.08.2018 02:00:00 12,8 10,9 0 0 N - 10 -
18.08.2018 01:00:00 12,8 10,9 13 7 WNW - 10 -
18.08.2018 00:00:00 13,0 10,4 18 10 ENE - 10 -
17.08.2018 23:00:00 13,0 10,7 16 9 NE - 10 -
17.08.2018 22:00:00 13,4 12,8 15 8 ENE - 10 -
17.08.2018 21:00:00 14,0 12,2 9 5 W - 10 -
17.08.2018 20:00:00 14,2 11,7 5 3 W - 10 0
17.08.2018 19:00:00 14,0 12,4 11 6 W - 6 0
17.08.2018 18:00:00 13,8 12,7 15 8 W - 2,0 0
17.08.2018 17:00:00 17,6 13,5 8 4 W - 10 18
17.08.2018 16:00:00 16,0 11,6 15 8 W - 10 0
17.08.2018 15:00:00 17,2 12,3 8 4 WSW - 15 36
17.08.2018 14:00:00 17,2 12,9 11 6 W - 15 42
17.08.2018 13:00:00 18,4 12,2 11 6 W - 20 60
17.08.2018 12:00:00 17,4 12,1 11 6 W - 20 60
17.08.2018 11:00:00 17,0 10,8 5 3 W - 20 60
17.08.2018 10:00:00 16,8 6,9 4 2 W - 25 60
17.08.2018 09:00:00 17,0 6,8 0 0 N - 25 60
17.08.2018 08:00:00 16,6 6,4 0 0 N - 25 60
17.08.2018 07:00:00 14,4 7,0 0 0 N - 20 -
17.08.2018 06:00:00 12,0 8,7 4 2 N - 15 -
17.08.2018 05:00:00 12,0 7,3 0 0 N - 15 -
17.08.2018 04:00:00 12,0 9,5 4 2 N - 15 -
17.08.2018 03:00:00 12,0 9,0 4 2 N - 15 -
17.08.2018 02:00:00 12,4 8,1 8 4 NNE - 15 -
17.08.2018 01:00:00 12,4 8,7 8 4 NNE - 15 -
17.08.2018 00:00:00 12,6 10,7 9 5 NNE - 15 -
16.08.2018 23:00:00 12,8 11,2 13 7 NNE - 15 -
16.08.2018 22:00:00 12,8 11,5 13 7 NNE - 15 -
16.08.2018 21:00:00 13,2 12,7 11 6 NNE - 0,1 -
16.08.2018 20:00:00 14,4 13,9 5 3 NNE - 15 12
16.08.2018 19:00:00 14,4 12,4 8 4 NNE - 0,1 0
16.08.2018 18:00:00 14,8 12,8 8 4 NNE - 20 18
16.08.2018 17:00:00 16,0 14,4 9 5 W - 20 24
16.08.2018 16:00:00 17,0 13,0 13 7 W - 25 42
16.08.2018 15:00:00 15,6 13,4 9 5 W - 20 18
16.08.2018 14:00:00 15,0 14,5 4 2 W - - 0
16.08.2018 13:00:00 15,8 15,0 8 4 W - 20 48
16.08.2018 12:00:00 15,6 13,4 8 4 W - 25 54
16.08.2018 11:00:00 16,2 10,3 4 2 SSE - 25 60
16.08.2018 10:00:00 16,0 9,2 0 0 N - 20 60
16.08.2018 09:00:00 16,0 9,0 0 0 N - 20 60
16.08.2018 08:00:00 16,2 11,2 0 0 N - 20 60
16.08.2018 07:00:00 14,2 7,7 0 0 N - 20 -
16.08.2018 06:00:00 13,0 8,7 0 0 N - 15 -
16.08.2018 05:00:00 13,0 8,7 0 0 N - 15 -
16.08.2018 04:00:00 13,0 7,7 0 0 N - 15 -
16.08.2018 03:00:00 13,0 10,5 0 0 N - 15 -
16.08.2018 02:00:00 13,0 10,5 0 0 N - 15 -
16.08.2018 01:00:00 - - - - - - - -
16.08.2018 00:00:00 13,4 10,0 0 0 N - 15 -
15.08.2018 23:00:00 13,4 9,7 0 0 N - 15 -
15.08.2018 22:00:00 13,6 8,7 0 0 N - 15 -
15.08.2018 21:00:00 13,8 10,4 9 5 W - 15 -
15.08.2018 20:00:00 14,2 11,2 11 6 W - 15 0
15.08.2018 19:00:00 15,2 10,2 18 10 W - 15 60
15.08.2018 18:00:00 - - - - - - - -
15.08.2018 17:00:00 15,2 12,7 15 8 W - 15 36
15.08.2018 16:00:00 15,0 12,0 11 6 W - 15 24
15.08.2018 15:00:00 16,0 12,7 11 6 W - 15 36
15.08.2018 14:00:00 15,0 12,5 11 6 W - 15 30
15.08.2018 13:00:00 15,0 14,2 9 5 W - 10 0
15.08.2018 12:00:00 14,6 12,1 9 5 W - 15 36
15.08.2018 11:00:00 14,2 10,8 9 5 W - 15 36
15.08.2018 10:00:00 12,0 8,3 24 13 W - 20 0
15.08.2018 09:00:00 11,0 10,2 22 12 W - 15 0
15.08.2018 08:00:00 11,0 10,7 11 6 W - - -
15.08.2018 07:00:00 12,0 12,0 11 6 W - - -
15.08.2018 06:00:00 14,2 10,8 13 7 W - 10 -
15.08.2018 05:00:00 14,2 11,7 13 7 WSW - 10 -
15.08.2018 04:00:00 14,4 11,9 11 6 WSW - 10 -
15.08.2018 03:00:00 14,2 12,1 11 6 WSW - 10 -
15.08.2018 02:00:00 14,6 11,7 9 5 WSW - 10 -
15.08.2018 01:00:00 15,0 11,2 9 5 WSW - 10 -
15.08.2018 00:00:00 15,0 11,2 13 7 WSW - 10 -
14.08.2018 23:00:00 15,0 12,0 15 8 SW - 10 -
14.08.2018 22:00:00 15,4 11,6 15 8 WSW - 10 -
14.08.2018 21:00:00 15,8 9,2 15 8 WSW - 10 -
14.08.2018 20:00:00 15,4 15,4 13 7 WSW - 15 0
14.08.2018 19:00:00 17,0 15,4 18 10 W - 20 0
14.08.2018 18:00:00 19,0 15,1 26 14 W - 25 60
14.08.2018 17:00:00 19,2 14,7 28 15 W - 25 60
14.08.2018 16:00:00 19,0 14,5 18 10 W - 25 60
14.08.2018 15:00:00 20,0 15,4 24 13 W - 25 60
14.08.2018 14:00:00 19,8 15,0 22 12 W - 25 60
14.08.2018 13:00:00 19,8 11,8 18 10 WSW - 25 60
14.08.2018 12:00:00 19,8 10,5 15 8 WSW - 25 60
14.08.2018 11:00:00 19,0 8,7 9 5 SW - 25 60
14.08.2018 10:00:00 19,0 8,4 11 6 SW - 30 60
14.08.2018 09:00:00 19,0 8,4 11 6 SSW - 30 60
14.08.2018 08:00:00 16,8 7,6 11 6 SSW - 20 24
14.08.2018 07:00:00 16,4 6,7 11 6 SSW - 10 -
14.08.2018 06:00:00 16,6 8,0 11 6 SSW - 10 -
14.08.2018 05:00:00 16,8 8,6 11 6 SW - 10 -
14.08.2018 04:00:00 16,6 8,0 11 6 SSW - 10 -
14.08.2018 03:00:00 16,8 7,6 11 6 SW - 10 -
14.08.2018 02:00:00 16,8 7,6 15 8 SSW - 10 -
14.08.2018 01:00:00 16,6 7,4 15 8 SSW - 10 -

tt = Température de l'air
td = dewpoint
ff = Vitesse du vent
dd = Direction du vent
ppp = reduced air pressure
vv = visibility
sd = Ensoleillement

stations d'obs. à proximité